Time;durP1;ratioP1;P1;durP2;ratioP2;P2;SDS_P1;SDS_P2;PMS_P1;PMS_P2;Temp;Humidity;BMP_temperature;BMP_pressure;BME280_temperature;BME280_humidity;BME280_pressure;Samples;Min_cycle;Max_cycle;Signal;HPM_P1;HPM_P2
2021/09/17 00:00:54;;;;;;;56.15;41.97;;;;;;;;;;4978849;28;20266;-71
2021/09/17 00:03:21;;;;;;;62.90;44.33;;;;;;;;;;4984941;28;20191;-71
2021/09/17 00:05:46;;;;;;;61.67;44.65;;;;;;;;;;4984200;28;20428;-71
2021/09/17 00:08:11;;;;;;;65.68;45.20;;;;;;;;;;4991796;28;20187;-71
2021/09/17 00:10:36;;;;;;;54.38;38.83;;;;;;;;;;4966649;28;20223;-70
2021/09/17 00:13:01;;;;;;;61.13;42.83;;;;;;;;;;4974669;28;20259;-71
2021/09/17 00:15:27;;;;;;;58.50;42.92;;;;;;;;;;4980399;28;20421;-71
2021/09/17 00:17:52;;;;;;;61.65;43.78;;;;;;;;;;4978689;28;20210;-70
2021/09/17 00:20:18;;;;;;;66.28;48.65;;;;;;;;;;4980241;28;20570;-71
2021/09/17 00:22:43;;;;;;;61.95;45.42;;;;;;;;;;4980606;28;20218;-71
2021/09/17 00:25:09;;;;;;;65.53;44.80;;;;;;;;;;4985505;28;20195;-71
2021/09/17 00:27:34;;;;;;;61.95;45.15;;;;;;;;;;5019149;23;20598;-72
2021/09/17 00:29:59;;;;;;;68.80;45.55;;;;;;;;;;5008808;28;20298;-73
2021/09/17 00:32:25;;;;;;;65.70;46.08;;;;;;;;;;5006210;28;20199;-73
2021/09/17 00:34:50;;;;;;;69.47;47.08;;;;;;;;;;4985696;28;20178;-72
2021/09/17 00:37:15;;;;;;;67.93;47.93;;;;;;;;;;5002491;28;20273;-73
2021/09/17 00:39:40;;;;;;;66.05;44.00;;;;;;;;;;4999375;28;20428;-72
2021/09/17 00:42:05;;;;;;;62.25;42.90;;;;;;;;;;4999873;28;20198;-73
2021/09/17 00:44:31;;;;;;;49.58;36.28;;;;;;;;;;4975317;28;20270;-73
2021/09/17 00:46:56;;;;;;;56.78;40.65;;;;;;;;;;4992821;28;20229;-71
2021/09/17 00:49:22;;;;;;;49.40;37.45;;;;;;;;;;5001055;28;20211;-71
2021/09/17 00:51:47;;;;;;;59.30;42.25;;;;;;;;;;4998118;28;20708;-73
2021/09/17 00:54:13;;;;;;;50.60;36.63;;;;;;;;;;5003315;28;20230;-72
2021/09/17 00:56:38;;;;;;;50.38;35.92;;;;;;;;;;5000187;28;20201;-76
2021/09/17 00:59:04;;;;;;;59.30;41.67;;;;;;;;;;4998524;28;20476;-73
2021/09/17 01:01:29;;;;;;;55.33;37.70;;;;;;;;;;5001054;28;20561;-73
2021/09/17 01:03:54;;;;;;;49.30;35.10;;;;;;;;;;5001014;28;20249;-73
2021/09/17 01:06:19;;;;;;;50.35;35.90;;;;;;;;;;4999211;28;20253;-73
2021/09/17 01:08:45;;;;;;;51.25;36.83;;;;;;;;;;4998769;28;20182;-73
2021/09/17 01:11:11;;;;;;;64.85;44.50;;;;;;;;;;4998421;28;20736;-73
2021/09/17 01:13:36;;;;;;;53.53;40.28;;;;;;;;;;5000278;28;20185;-73
2021/09/17 01:16:02;;;;;;;53.20;38.88;;;;;;;;;;4997935;28;20604;-73
2021/09/17 01:18:27;;;;;;;61.40;44.22;;;;;;;;;;4999053;28;20182;-73
2021/09/17 01:20:59;;;;;;;61.03;41.90;;;;;;;;;;4980933;28;20663;-73
2021/09/17 01:23:24;;;;;;;59.05;40.88;;;;;;;;;;4997161;28;20191;-73
2021/09/17 01:25:50;;;;;;;69.53;44.85;;;;;;;;;;5000446;28;20174;-71
2021/09/17 01:28:20;;;;;;;68.93;45.00;;;;;;;;;;4993886;28;20240;-72
2021/09/17 01:30:45;;;;;;;67.10;45.75;;;;;;;;;;4987350;28;20207;-72
2021/09/17 01:33:10;;;;;;;67.15;45.63;;;;;;;;;;5007477;28;20185;-72
2021/09/17 01:35:35;;;;;;;75.47;47.88;;;;;;;;;;5020924;28;20253;-74
2021/09/17 01:38:00;;;;;;;63.22;44.90;;;;;;;;;;5011257;28;20285;-71
2021/09/17 01:40:26;;;;;;;67.22;46.08;;;;;;;;;;5016528;28;20186;-71
2021/09/17 01:42:52;;;;;;;73.45;47.58;;;;;;;;;;5022947;28;20358;-72
2021/09/17 01:45:17;;;;;;;74.55;48.60;;;;;;;;;;5010966;28;20178;-71
2021/09/17 01:47:42;;;;;;;61.40;42.50;;;;;;;;;;5012916;28;20581;-73
2021/09/17 01:50:08;;;;;;;69.35;48.17;;;;;;;;;;5015273;28;20242;-73
2021/09/17 01:52:33;;;;;;;70.65;47.47;;;;;;;;;;5001640;28;20262;-73
2021/09/17 01:54:58;;;;;;;80.93;52.20;;;;;;;;;;5012529;28;20182;-73
2021/09/17 01:57:23;;;;;;;79.32;52.38;;;;;;;;;;5016196;28;20451;-72
2021/09/17 01:59:48;;;;;;;76.88;51.28;;;;;;;;;;5009099;28;20269;-70
2021/09/17 02:02:14;;;;;;;82.88;50.72;;;;;;;;;;4987799;28;20226;-73
2021/09/17 02:04:39;;;;;;;76.85;49.40;;;;;;;;;;4991200;28;20821;-72
2021/09/17 02:07:04;;;;;;;82.63;53.20;;;;;;;;;;5015764;28;20222;-73
2021/09/17 02:09:29;;;;;;;81.53;50.95;;;;;;;;;;5016979;28;20831;-73
2021/09/17 02:11:54;;;;;;;79.38;50.50;;;;;;;;;;5010393;28;20190;-73
2021/09/17 02:14:20;;;;;;;85.40;53.90;;;;;;;;;;5001878;28;20174;-73
2021/09/17 02:16:45;;;;;;;90.95;54.10;;;;;;;;;;5006662;28;20716;-73
2021/09/17 02:19:10;;;;;;;81.45;51.85;;;;;;;;;;5011935;28;20186;-73
2021/09/17 02:21:38;;;;;;;79.55;50.97;;;;;;;;;;5004715;28;20183;-73
2021/09/17 02:24:04;;;;;;;78.47;49.63;;;;;;;;;;5007728;28;20249;-73
2021/09/17 02:26:29;;;;;;;84.03;53.10;;;;;;;;;;5004291;28;20218;-73
2021/09/17 02:28:54;;;;;;;81.32;50.22;;;;;;;;;;5005567;28;20194;-73
2021/09/17 02:31:19;;;;;;;82.30;53.47;;;;;;;;;;5004497;28;20245;-73
2021/09/17 02:33:44;;;;;;;77.35;50.55;;;;;;;;;;5005019;28;20661;-73
2021/09/17 02:36:10;;;;;;;77.13;50.27;;;;;;;;;;5012275;28;20182;-73
2021/09/17 02:38:35;;;;;;;69.95;47.15;;;;;;;;;;5012901;28;20946;-72
2021/09/17 02:41:00;;;;;;;69.50;45.88;;;;;;;;;;5012365;28;20183;-73
2021/09/17 02:43:26;;;;;;;74.95;48.95;;;;;;;;;;5011283;28;20189;-73
2021/09/17 02:45:51;;;;;;;63.33;43.83;;;;;;;;;;5011815;28;20215;-71
2021/09/17 02:48:16;;;;;;;67.00;44.60;;;;;;;;;;4994084;28;20210;-71
2021/09/17 02:50:41;;;;;;;63.13;43.42;;;;;;;;;;5012871;28;20277;-72
2021/09/17 02:53:07;;;;;;;62.38;43.20;;;;;;;;;;5006708;28;20183;-73
2021/09/17 02:55:32;;;;;;;62.72;44.33;;;;;;;;;;5010295;28;20175;-73
2021/09/17 02:57:58;;;;;;;66.45;43.67;;;;;;;;;;5010871;28;20711;-73
2021/09/17 03:00:23;;;;;;;69.28;44.50;;;;;;;;;;4992550;28;20244;-72
2021/09/17 03:02:48;;;;;;;64.72;44.47;;;;;;;;;;5009572;28;20228;-72
2021/09/17 03:05:14;;;;;;;74.95;49.42;;;;;;;;;;5010757;28;20388;-73
2021/09/17 03:07:39;;;;;;;70.78;47.53;;;;;;;;;;5005773;28;20241;-72
2021/09/17 03:10:04;;;;;;;52.78;37.85;;;;;;;;;;5008781;28;20202;-73
2021/09/17 03:12:30;;;;;;;62.88;43.38;;;;;;;;;;5011576;28;20179;-73
2021/09/17 03:14:55;;;;;;;67.13;45.78;;;;;;;;;;5010238;28;20227;-72
2021/09/17 03:17:20;;;;;;;69.82;46.40;;;;;;;;;;5014236;28;20576;-73
2021/09/17 03:19:45;;;;;;;69.57;46.00;;;;;;;;;;4992176;28;20183;-73
2021/09/17 03:22:10;;;;;;;70.38;46.03;;;;;;;;;;4990433;28;20183;-73
2021/09/17 03:24:36;;;;;;;66.75;45.63;;;;;;;;;;5008896;28;20181;-73
2021/09/17 03:27:01;;;;;;;64.90;44.13;;;;;;;;;;5009029;28;20226;-72
2021/09/17 03:29:26;;;;;;;72.78;47.75;;;;;;;;;;5009855;28;20303;-73
2021/09/17 03:31:51;;;;;;;66.93;44.92;;;;;;;;;;5007444;28;20187;-70
2021/09/17 03:34:16;;;;;;;69.03;44.30;;;;;;;;;;5009271;28;20194;-72
2021/09/17 03:36:42;;;;;;;78.07;51.50;;;;;;;;;;5009292;28;20203;-72
2021/09/17 03:39:08;;;;;;;78.63;50.15;;;;;;;;;;5010799;28;20262;-72
2021/09/17 03:41:33;;;;;;;73.10;49.28;;;;;;;;;;5008323;28;20205;-72
2021/09/17 03:43:59;;;;;;;68.10;46.37;;;;;;;;;;5009031;28;20672;-73
2021/09/17 03:46:24;;;;;;;76.75;50.00;;;;;;;;;;5008342;28;20487;-73
2021/09/17 03:48:49;;;;;;;67.70;47.55;;;;;;;;;;5007666;28;20187;-73
2021/09/17 03:51:14;;;;;;;66.68;43.88;;;;;;;;;;5007207;28;20179;-72
2021/09/17 03:53:39;;;;;;;71.40;47.22;;;;;;;;;;5006638;28;20276;-72
2021/09/17 03:56:05;;;;;;;71.70;48.70;;;;;;;;;;5009997;28;20183;-72
2021/09/17 03:58:30;;;;;;;67.60;45.53;;;;;;;;;;5008072;28;20802;-72
2021/09/17 04:00:55;;;;;;;64.45;44.50;;;;;;;;;;5006314;28;20238;-72
2021/09/17 04:03:20;;;;;;;66.70;45.40;;;;;;;;;;5006940;28;20179;-72
2021/09/17 04:05:45;;;;;;;59.30;42.92;;;;;;;;;;5008371;28;20195;-72
2021/09/17 04:08:10;;;;;;;59.90;41.88;;;;;;;;;;5010986;28;20199;-73
2021/09/17 04:10:36;;;;;;;59.83;42.50;;;;;;;;;;5008272;28;20206;-72
2021/09/17 04:13:01;;;;;;;66.03;45.80;;;;;;;;;;5012082;28;20420;-72
2021/09/17 04:15:26;;;;;;;68.30;44.35;;;;;;;;;;5006942;28;20190;-72
2021/09/17 04:17:51;;;;;;;57.08;41.92;;;;;;;;;;5009922;28;20257;-72
2021/09/17 04:20:17;;;;;;;58.25;43.97;;;;;;;;;;4987511;28;20191;-72
2021/09/17 04:22:42;;;;;;;59.40;41.50;;;;;;;;;;5009664;28;20670;-72
2021/09/17 04:25:08;;;;;;;56.03;41.00;;;;;;;;;;5008126;28;20187;-73
2021/09/17 04:27:34;;;;;;;60.42;41.60;;;;;;;;;;5008104;28;20210;-73
2021/09/17 04:29:59;;;;;;;56.15;41.42;;;;;;;;;;5005498;28;20218;-72
2021/09/17 04:32:24;;;;;;;57.60;41.08;;;;;;;;;;5005123;28;20179;-72
2021/09/17 04:34:50;;;;;;;59.22;42.40;;;;;;;;;;5008140;28;20254;-72
2021/09/17 04:37:16;;;;;;;59.97;42.67;;;;;;;;;;5009058;28;20206;-72
2021/09/17 04:39:41;;;;;;;58.85;41.95;;;;;;;;;;5007056;28;20190;-73
2021/09/17 04:42:06;;;;;;;60.95;41.92;;;;;;;;;;5009935;28;20183;-73
2021/09/17 04:44:32;;;;;;;57.22;41.83;;;;;;;;;;5011119;28;20183;-73
2021/09/17 04:46:57;;;;;;;59.35;41.15;;;;;;;;;;4989599;28;20206;-72
2021/09/17 04:49:22;;;;;;;59.58;41.72;;;;;;;;;;5003416;28;20257;-73
2021/09/17 04:51:48;;;;;;;59.03;41.97;;;;;;;;;;5008961;28;20175;-73
2021/09/17 04:54:13;;;;;;;55.92;40.67;;;;;;;;;;5010272;28;20174;-73
2021/09/17 04:56:41;;;;;;;61.65;44.08;;;;;;;;;;5008466;28;20209;-72
2021/09/17 04:59:06;;;;;;;62.45;43.70;;;;;;;;;;5004237;28;20193;-73
2021/09/17 05:01:31;;;;;;;53.58;40.80;;;;;;;;;;4990352;28;20636;-73
2021/09/17 05:03:57;;;;;;;58.10;42.38;;;;;;;;;;5006706;28;20229;-73
2021/09/17 05:06:22;;;;;;;58.47;41.45;;;;;;;;;;5011203;28;20634;-73
2021/09/17 05:08:47;;;;;;;52.80;38.65;;;;;;;;;;5007197;28;20618;-73
2021/09/17 05:11:12;;;;;;;54.90;40.22;;;;;;;;;;5008599;28;20222;-70
2021/09/17 05:13:37;;;;;;;56.90;39.75;;;;;;;;;;5005755;28;20180;-73
2021/09/17 05:16:03;;;;;;;58.67;40.25;;;;;;;;;;4990987;28;20659;-73
2021/09/17 05:18:28;;;;;;;50.15;37.40;;;;;;;;;;5005840;28;20179;-73
2021/09/17 05:20:53;;;;;;;53.38;39.22;;;;;;;;;;4988451;28;20214;-72
2021/09/17 05:23:18;;;;;;;58.60;40.53;;;;;;;;;;4991102;28;20606;-73
2021/09/17 05:25:43;;;;;;;54.43;39.03;;;;;;;;;;5006346;28;20716;-73
2021/09/17 05:28:09;;;;;;;55.63;40.33;;;;;;;;;;5004946;28;20906;-73
2021/09/17 05:30:34;;;;;;;56.42;40.03;;;;;;;;;;4987323;28;20198;-74
2021/09/17 05:32:59;;;;;;;54.30;39.03;;;;;;;;;;5005429;28;20174;-73
2021/09/17 05:35:24;;;;;;;59.45;41.80;;;;;;;;;;5005207;28;20186;-73
2021/09/17 05:37:49;;;;;;;50.42;37.40;;;;;;;;;;4992642;28;20620;-72
2021/09/17 05:40:15;;;;;;;50.50;37.53;;;;;;;;;;5005151;28;20191;-72
2021/09/17 05:42:40;;;;;;;50.95;37.90;;;;;;;;;;5005567;28;20470;-73
2021/09/17 05:45:05;;;;;;;49.90;37.63;;;;;;;;;;5007930;28;20195;-73
2021/09/17 05:47:31;;;;;;;48.75;37.55;;;;;;;;;;5006214;28;20198;-73
2021/09/17 05:49:56;;;;;;;50.58;36.40;;;;;;;;;;5006610;28;20233;-70
2021/09/17 05:52:21;;;;;;;49.85;34.83;;;;;;;;;;5013523;28;20570;-71
2021/09/17 05:54:47;;;;;;;49.45;35.28;;;;;;;;;;5008336;28;20177;-73
2021/09/17 05:57:12;;;;;;;48.20;35.65;;;;;;;;;;5007035;28;20574;-73
2021/09/17 05:59:37;;;;;;;49.00;36.13;;;;;;;;;;5003893;28;20564;-73
2021/09/17 06:02:04;;;;;;;47.67;35.17;;;;;;;;;;5003434;28;20426;-73
2021/09/17 06:04:29;;;;;;;46.75;34.35;;;;;;;;;;4990833;28;20226;-72
2021/09/17 06:06:54;;;;;;;42.30;33.67;;;;;;;;;;5006913;28;20202;-73
2021/09/17 06:09:20;;;;;;;44.50;34.17;;;;;;;;;;5011095;28;20293;-73
2021/09/17 06:11:45;;;;;;;44.70;33.70;;;;;;;;;;5010851;28;20178;-72
2021/09/17 06:14:10;;;;;;;47.67;36.75;;;;;;;;;;5010938;28;20436;-72
2021/09/17 06:16:35;;;;;;;42.83;33.43;;;;;;;;;;5012817;28;20233;-73
2021/09/17 06:19:03;;;;;;;49.72;34.00;;;;;;;;;;4994795;28;20842;-73
2021/09/17 06:21:29;;;;;;;43.10;33.33;;;;;;;;;;4986272;28;20581;-72
2021/09/17 06:23:55;;;;;;;40.05;30.80;;;;;;;;;;5011107;28;20187;-72
2021/09/17 06:26:20;;;;;;;42.65;33.28;;;;;;;;;;4995190;28;20220;-72
2021/09/17 06:28:45;;;;;;;40.83;32.53;;;;;;;;;;4993733;28;20649;-72
2021/09/17 06:31:10;;;;;;;42.97;32.17;;;;;;;;;;5010083;28;20314;-73
2021/09/17 06:33:36;;;;;;;41.27;31.43;;;;;;;;;;5013383;28;20183;-73
2021/09/17 06:36:01;;;;;;;39.53;31.65;;;;;;;;;;5008632;28;20531;-73
2021/09/17 06:38:26;;;;;;;38.75;30.70;;;;;;;;;;4986577;28;20624;-73
2021/09/17 06:40:51;;;;;;;42.57;32.63;;;;;;;;;;5009110;28;20250;-73
2021/09/17 06:43:17;;;;;;;36.03;30.08;;;;;;;;;;5013492;28;20413;-73
2021/09/17 06:45:42;;;;;;;41.30;31.95;;;;;;;;;;5026861;28;20694;-73
2021/09/17 06:48:07;;;;;;;40.45;32.70;;;;;;;;;;5015460;28;20268;-73
2021/09/17 06:50:32;;;;;;;43.53;30.85;;;;;;;;;;5011259;28;20222;-70
2021/09/17 06:52:57;;;;;;;35.92;29.95;;;;;;;;;;5010526;28;20190;-72
2021/09/17 06:55:25;;;;;;;35.67;28.45;;;;;;;;;;5022601;28;20198;-73
2021/09/17 06:57:51;;;;;;;36.35;28.60;;;;;;;;;;5014349;28;20195;-71
2021/09/17 07:00:17;;;;;;;34.13;28.80;;;;;;;;;;5010201;28;20186;-73
2021/09/17 07:02:43;;;;;;;33.35;28.77;;;;;;;;;;5008156;28;20282;-73
2021/09/17 07:05:08;;;;;;;40.10;28.63;;;;;;;;;;5019027;28;20650;-73
2021/09/17 07:07:33;;;;;;;34.83;28.10;;;;;;;;;;5015768;28;20210;-73
2021/09/17 07:09:59;;;;;;;35.37;27.17;;;;;;;;;;5010808;28;20643;-73
2021/09/17 07:12:24;;;;;;;37.97;28.67;;;;;;;;;;5009530;28;20423;-73
2021/09/17 07:14:49;;;;;;;32.95;26.35;;;;;;;;;;5007846;28;20997;-71
2021/09/17 07:17:14;;;;;;;47.63;28.98;;;;;;;;;;5008423;28;20214;-73
2021/09/17 07:19:39;;;;;;;31.13;25.60;;;;;;;;;;5009172;28;20179;-73
2021/09/17 07:22:05;;;;;;;32.17;25.88;;;;;;;;;;5017908;28;20816;-70
2021/09/17 07:24:31;;;;;;;29.77;25.88;;;;;;;;;;5001116;28;20257;-70
2021/09/17 07:26:56;;;;;;;29.20;26.05;;;;;;;;;;5014013;28;20245;-73
2021/09/17 07:29:21;;;;;;;28.33;24.17;;;;;;;;;;5009986;28;20202;-73
2021/09/17 07:31:47;;;;;;;27.77;24.33;;;;;;;;;;5012657;28;20656;-73
2021/09/17 07:34:12;;;;;;;27.02;22.83;;;;;;;;;;5016277;28;20416;-72
2021/09/17 07:36:37;;;;;;;26.77;23.87;;;;;;;;;;4994636;28;20214;-71
2021/09/17 07:39:02;;;;;;;27.02;23.40;;;;;;;;;;4990261;28;20490;-72
2021/09/17 07:41:27;;;;;;;27.40;23.05;;;;;;;;;;4992540;28;20174;-70
2021/09/17 07:43:52;;;;;;;28.63;23.50;;;;;;;;;;5008782;28;20459;-72
2021/09/17 07:46:18;;;;;;;26.70;23.10;;;;;;;;;;5009164;28;20964;-70
2021/09/17 07:48:43;;;;;;;26.23;23.02;;;;;;;;;;4988995;28;20712;-71
2021/09/17 07:51:08;;;;;;;26.08;23.33;;;;;;;;;;5008139;28;20269;-71
2021/09/17 07:53:33;;;;;;;27.65;23.02;;;;;;;;;;5006053;28;20186;-72
2021/09/17 07:55:58;;;;;;;29.17;23.90;;;;;;;;;;5006413;28;20262;-71
2021/09/17 07:58:24;;;;;;;30.73;24.70;;;;;;;;;;5005684;28;20752;-72
2021/09/17 08:00:49;;;;;;;28.02;23.83;;;;;;;;;;4990824;28;20424;-72
2021/09/17 08:03:14;;;;;;;27.88;23.52;;;;;;;;;;4991111;28;20199;-72
2021/09/17 08:05:39;;;;;;;29.70;24.03;;;;;;;;;;5010314;28;20183;-71
2021/09/17 08:08:04;;;;;;;34.70;27.47;;;;;;;;;;5007147;28;20497;-72
2021/09/17 08:10:30;;;;;;;29.35;25.98;;;;;;;;;;5006565;28;20452;-71
2021/09/17 08:12:55;;;;;;;28.85;25.55;;;;;;;;;;5007973;28;20579;-72
2021/09/17 08:15:20;;;;;;;34.17;28.65;;;;;;;;;;5001339;28;20274;-71
2021/09/17 08:17:45;;;;;;;31.37;27.90;;;;;;;;;;5006362;28;20245;-71
2021/09/17 08:20:11;;;;;;;31.17;26.87;;;;;;;;;;5006761;28;20949;-71
2021/09/17 08:22:36;;;;;;;30.52;27.02;;;;;;;;;;5004332;28;20428;-71
2021/09/17 08:25:01;;;;;;;30.88;25.80;;;;;;;;;;4989618;28;20233;-71
2021/09/17 08:27:26;;;;;;;31.48;26.45;;;;;;;;;;5007669;28;20225;-71
2021/09/17 08:29:51;;;;;;;30.83;27.33;;;;;;;;;;5006761;28;20202;-72
2021/09/17 08:32:17;;;;;;;28.47;25.47;;;;;;;;;;5003795;28;21298;-71
2021/09/17 08:34:42;;;;;;;33.75;26.80;;;;;;;;;;5008807;28;20435;-71
2021/09/17 08:37:09;;;;;;;31.13;25.53;;;;;;;;;;5008581;28;20692;-71
2021/09/17 08:39:36;;;;;;;30.27;25.50;;;;;;;;;;5007525;28;20515;-71
2021/09/17 08:42:03;;;;;;;26.13;23.13;;;;;;;;;;5006699;28;20691;-71
2021/09/17 08:44:28;;;;;;;26.17;23.42;;;;;;;;;;5006430;28;20183;-71
2021/09/17 08:46:53;;;;;;;26.08;22.90;;;;;;;;;;5007627;28;20754;-71
2021/09/17 08:49:22;;;;;;;26.73;23.35;;;;;;;;;;4989076;28;20297;-70
2021/09/17 08:51:47;;;;;;;26.70;23.45;;;;;;;;;;5004545;28;20675;-70
2021/09/17 08:54:13;;;;;;;26.10;23.27;;;;;;;;;;5007688;28;20175;-71
2021/09/17 08:56:38;;;;;;;26.42;21.85;;;;;;;;;;4989244;28;20257;-70
2021/09/17 08:59:03;;;;;;;29.50;24.07;;;;;;;;;;4987871;28;20266;-70
2021/09/17 09:01:33;;;;;;;26.17;23.38;;;;;;;;;;4987339;28;20915;-73
2021/09/17 09:04:01;;;;;;;27.63;24.63;;;;;;;;;;5004195;28;20178;-71
2021/09/17 09:06:27;;;;;;;25.77;23.05;;;;;;;;;;4996716;28;20694;-71
2021/09/17 09:08:52;;;;;;;28.65;24.52;;;;;;;;;;5008477;28;20180;-71
2021/09/17 09:11:28;;;;;;;28.58;24.17;;;;;;;;;;5007582;28;20598;-71
2021/09/17 09:13:59;;;;;;;24.23;21.63;;;;;;;;;;4984303;28;20194;-70
2021/09/17 09:16:24;;;;;;;22.50;19.92;;;;;;;;;;4996988;28;20230;-70
2021/09/17 09:18:49;;;;;;;26.05;21.25;;;;;;;;;;5006517;28;20203;-71
2021/09/17 09:21:25;;;;;;;23.35;20.30;;;;;;;;;;5008244;28;20187;-71
2021/09/17 09:24:07;;;;;;;25.02;19.15;;;;;;;;;;5010146;28;20631;-71
2021/09/17 09:26:32;;;;;;;26.08;20.63;;;;;;;;;;5004264;28;20232;-71
2021/09/17 09:28:57;;;;;;;22.53;20.20;;;;;;;;;;5005027;28;20731;-71
2021/09/17 09:31:22;;;;;;;22.10;19.13;;;;;;;;;;5007228;28;20456;-71
2021/09/17 09:33:48;;;;;;;23.03;19.87;;;;;;;;;;5010475;28;20447;-70
2021/09/17 09:36:15;;;;;;;24.98;21.25;;;;;;;;;;5005164;28;20436;-71
2021/09/17 09:38:42;;;;;;;30.30;23.35;;;;;;;;;;5007429;28;20171;-70
2021/09/17 09:41:15;;;;;;;25.08;21.63;;;;;;;;;;5002231;28;20179;-71
2021/09/17 09:43:48;;;;;;;24.42;21.15;;;;;;;;;;5001177;28;20182;-71
2021/09/17 09:46:21;;;;;;;25.85;22.85;;;;;;;;;;5008823;28;20182;-71
2021/09/17 09:48:58;;;;;;;26.83;22.55;;;;;;;;;;4986525;28;20179;-71
2021/09/17 09:51:24;;;;;;;26.33;22.13;;;;;;;;;;5008646;28;20285;-71
2021/09/17 09:53:49;;;;;;;25.63;22.10;;;;;;;;;;4991798;28;20262;-70
2021/09/17 09:56:15;;;;;;;29.10;23.05;;;;;;;;;;5014700;28;20210;-70
2021/09/17 09:58:40;;;;;;;28.23;23.27;;;;;;;;;;5015843;28;20170;-70
2021/09/17 10:01:05;;;;;;;28.40;22.83;;;;;;;;;;4997046;28;20179;-70
2021/09/17 10:03:31;;;;;;;28.45;22.45;;;;;;;;;;5017752;28;20182;-70
2021/09/17 10:05:56;;;;;;;32.08;23.63;;;;;;;;;;5007684;28;20224;-70
2021/09/17 10:08:21;;;;;;;26.52;21.40;;;;;;;;;;5004365;28;20230;-70
2021/09/17 10:10:46;;;;;;;29.70;23.27;;;;;;;;;;5010352;28;20203;-70
2021/09/17 10:13:12;;;;;;;28.42;23.02;;;;;;;;;;5009088;28;20446;-70
2021/09/17 10:15:37;;;;;;;28.30;22.83;;;;;;;;;;5009769;28;20179;-70
2021/09/17 10:18:02;;;;;;;28.50;21.50;;;;;;;;;;4992583;28;20206;-69
2021/09/17 10:20:37;;;;;;;28.93;22.37;;;;;;;;;;5007042;28;20182;-71
2021/09/17 10:23:21;;;;;;;27.63;21.90;;;;;;;;;;5008190;28;20468;-70
2021/09/17 10:26:03;;;;;;;30.00;19.75;;;;;;;;;;5008640;28;20190;-70
2021/09/17 10:28:29;;;;;;;26.75;20.33;;;;;;;;;;5018286;28;20222;-70
2021/09/17 10:31:08;;;;;;;25.88;20.15;;;;;;;;;;5008481;28;20629;-71
2021/09/17 10:33:34;;;;;;;27.33;21.30;;;;;;;;;;5011152;28;20662;-70
2021/09/17 10:35:59;;;;;;;26.83;21.40;;;;;;;;;;5006390;28;20184;-70
2021/09/17 10:38:26;;;;;;;26.93;21.13;;;;;;;;;;5006813;28;20183;-70
2021/09/17 10:40:54;;;;;;;28.63;22.75;;;;;;;;;;4998309;28;20212;-69
2021/09/17 10:43:26;;;;;;;28.40;20.67;;;;;;;;;;4999516;28;20205;-70
2021/09/17 10:45:55;;;;;;;29.42;20.20;;;;;;;;;;5010589;28;20179;-71
2021/09/17 10:48:22;;;;;;;28.42;22.60;;;;;;;;;;5008675;28;20187;-70
2021/09/17 10:50:51;;;;;;;27.02;21.00;;;;;;;;;;4993918;28;20264;-70
2021/09/17 10:53:53;;;;;;;29.38;23.60;;;;;;;;;;5004683;28;20198;-71
2021/09/17 10:56:18;;;;;;;31.23;23.83;;;;;;;;;;5008087;28;20187;-71
2021/09/17 10:58:45;;;;;;;28.95;23.33;;;;;;;;;;5007293;28;20198;-70
2021/09/17 11:01:12;;;;;;;28.55;22.40;;;;;;;;;;5007252;28;20685;-71
2021/09/17 11:03:44;;;;;;;27.77;24.10;;;;;;;;;;5005081;28;20227;-71
2021/09/17 11:06:28;;;;;;;29.83;24.05;;;;;;;;;;5003337;28;20237;-70
2021/09/17 11:09:00;;;;;;;28.17;22.33;;;;;;;;;;5008410;28;20687;-71
2021/09/17 11:11:33;;;;;;;33.53;22.15;;;;;;;;;;5000956;28;20199;-71
2021/09/17 11:14:00;;;;;;;27.35;22.98;;;;;;;;;;5006116;28;20178;-71
2021/09/17 11:16:25;;;;;;;32.08;24.08;;;;;;;;;;5008892;28;20199;-69
2021/09/17 11:19:01;;;;;;;27.75;21.50;;;;;;;;;;5002845;28;20355;-75
2021/09/17 11:21:30;;;;;;;28.52;22.48;;;;;;;;;;5006100;28;20825;-70
2021/09/17 11:23:56;;;;;;;26.75;18.95;;;;;;;;;;5007769;28;20711;-71
2021/09/17 11:26:23;;;;;;;20.75;17.63;;;;;;;;;;5005318;28;20231;-71
2021/09/17 11:28:57;;;;;;;24.50;18.13;;;;;;;;;;5007774;28;20233;-70
2021/09/17 11:31:22;;;;;;;19.33;16.05;;;;;;;;;;4997260;28;20211;-70
2021/09/17 11:33:54;;;;;;;23.30;18.10;;;;;;;;;;5008980;28;20182;-70
2021/09/17 11:36:32;;;;;;;21.48;18.02;;;;;;;;;;5008019;28;20616;-70
2021/09/17 11:39:08;;;;;;;26.48;19.25;;;;;;;;;;5008674;28;20589;-69
2021/09/17 11:41:37;;;;;;;23.92;18.50;;;;;;;;;;5005311;28;20648;-69
2021/09/17 11:44:02;;;;;;;20.90;16.35;;;;;;;;;;5011384;28;20233;-69
2021/09/17 11:46:28;;;;;;;20.88;16.67;;;;;;;;;;5011130;28;20455;-69
2021/09/17 11:48:53;;;;;;;21.85;17.52;;;;;;;;;;5004610;28;22829;-70
2021/09/17 11:51:21;;;;;;;21.77;17.92;;;;;;;;;;5005797;28;20206;-69
2021/09/17 11:53:46;;;;;;;21.50;18.13;;;;;;;;;;5008466;28;20237;-71
2021/09/17 11:56:11;;;;;;;23.10;19.65;;;;;;;;;;5003394;28;20178;-70
2021/09/17 11:58:40;;;;;;;20.77;16.15;;;;;;;;;;4984940;28;20561;-70
2021/09/17 12:01:15;;;;;;;18.45;16.42;;;;;;;;;;5008019;28;20668;-70
2021/09/17 12:03:40;;;;;;;21.08;17.88;;;;;;;;;;5006608;28;20181;-70
2021/09/17 12:06:06;;;;;;;19.42;17.27;;;;;;;;;;5008502;28;20195;-72
2021/09/17 12:08:31;;;;;;;18.50;16.55;;;;;;;;;;5007120;28;20179;-70
2021/09/17 12:11:00;;;;;;;19.60;17.50;;;;;;;;;;5008775;28;20211;-70
2021/09/17 12:13:26;;;;;;;20.17;17.42;;;;;;;;;;5009670;28;20238;-70
2021/09/17 12:15:55;;;;;;;20.10;18.00;;;;;;;;;;4992390;28;20676;-71
2021/09/17 12:18:21;;;;;;;20.17;18.05;;;;;;;;;;5009712;28;20672;-71
2021/09/17 12:20:47;;;;;;;20.40;16.98;;;;;;;;;;5005687;28;20198;-69
2021/09/17 12:23:14;;;;;;;23.88;19.38;;;;;;;;;;5007375;28;20183;-70
2021/09/17 12:25:39;;;;;;;25.48;20.55;;;;;;;;;;5005905;28;20706;-71
2021/09/17 12:28:06;;;;;;;23.00;19.33;;;;;;;;;;5032958;23;20348;-69
2021/09/17 12:30:32;;;;;;;19.92;17.65;;;;;;;;;;5028563;28;20217;-70
2021/09/17 12:33:10;;;;;;;19.50;17.23;;;;;;;;;;5023444;28;20236;-69
2021/09/17 12:35:36;;;;;;;21.40;19.13;;;;;;;;;;5019236;28;20194;-69
2021/09/17 12:38:04;;;;;;;22.13;19.58;;;;;;;;;;5022881;28;20198;-70
2021/09/17 12:40:30;;;;;;;20.05;17.90;;;;;;;;;;5018872;28;20183;-70
2021/09/17 12:42:58;;;;;;;21.35;18.85;;;;;;;;;;5027339;28;20239;-70
2021/09/17 12:45:23;;;;;;;19.38;16.52;;;;;;;;;;5021147;28;20175;-69
2021/09/17 12:47:50;;;;;;;19.83;16.58;;;;;;;;;;5027069;28;20576;-70
2021/09/17 12:50:15;;;;;;;17.05;15.35;;;;;;;;;;5027001;28;20217;-71
2021/09/17 12:52:45;;;;;;;17.23;14.70;;;;;;;;;;5033572;28;20174;-69
2021/09/17 12:55:30;;;;;;;16.17;14.57;;;;;;;;;;5022968;28;20182;-70
2021/09/17 12:57:59;;;;;;;19.60;14.60;;;;;;;;;;5024962;28;20287;-70
2021/09/17 13:00:24;;;;;;;16.27;14.57;;;;;;;;;;5026698;28;20174;-70
2021/09/17 13:02:51;;;;;;;15.50;13.90;;;;;;;;;;5023125;28;20179;-70
2021/09/17 13:05:16;;;;;;;15.43;13.35;;;;;;;;;;5022319;28;20198;-70
2021/09/17 13:07:41;;;;;;;14.47;13.00;;;;;;;;;;5022108;28;20198;-69
2021/09/17 13:10:07;;;;;;;13.98;12.48;;;;;;;;;;5018544;28;20992;-70
2021/09/17 13:12:32;;;;;;;14.27;12.82;;;;;;;;;;5021495;28;20680;-70
2021/09/17 13:14:57;;;;;;;17.97;13.57;;;;;;;;;;5027123;28;20213;-70
2021/09/17 13:17:22;;;;;;;15.27;13.67;;;;;;;;;;5028474;28;20447;-70
2021/09/17 13:19:48;;;;;;;15.80;13.77;;;;;;;;;;5028099;28;20637;-70
2021/09/17 13:22:13;;;;;;;17.40;14.17;;;;;;;;;;5022384;28;20476;-69
2021/09/17 13:24:38;;;;;;;13.17;10.57;;;;;;;;;;5025943;28;20249;-70
2021/09/17 13:27:04;;;;;;;9.98;8.98;;;;;;;;;;5023727;28;20206;-70
2021/09/17 13:29:29;;;;;;;10.48;9.20;;;;;;;;;;5017345;28;20542;-69
2021/09/17 13:31:54;;;;;;;10.98;9.45;;;;;;;;;;5026656;28;20170;-70
2021/09/17 13:34:20;;;;;;;10.10;8.87;;;;;;;;;;5023368;28;20174;-69
2021/09/17 13:36:45;;;;;;;10.93;9.83;;;;;;;;;;5026054;28;20471;-70
2021/09/17 13:39:10;;;;;;;11.93;8.60;;;;;;;;;;5026779;28;20955;-69
2021/09/17 13:41:35;;;;;;;8.60;7.70;;;;;;;;;;5025215;28;20435;-69
2021/09/17 13:44:00;;;;;;;12.83;10.20;;;;;;;;;;5022714;28;20579;-70
2021/09/17 13:46:25;;;;;;;8.37;7.50;;;;;;;;;;5028628;28;20509;-70
2021/09/17 13:48:50;;;;;;;7.87;7.07;;;;;;;;;;5020104;28;20439;-69
2021/09/17 13:51:16;;;;;;;6.63;4.70;;;;;;;;;;5026646;28;20274;-69
2021/09/17 13:53:41;;;;;;;6.90;4.40;;;;;;;;;;5024593;28;20431;-71
2021/09/17 13:56:06;;;;;;;5.67;4.50;;;;;;;;;;5023817;28;20514;-69
2021/09/17 13:58:31;;;;;;;6.45;4.72;;;;;;;;;;5026684;28;20451;-69
2021/09/17 14:00:57;;;;;;;7.22;4.32;;;;;;;;;;5022994;28;20182;-69
2021/09/17 14:03:22;;;;;;;5.38;4.15;;;;;;;;;;5027320;28;20675;-69
2021/09/17 14:05:48;;;;;;;6.33;4.10;;;;;;;;;;5027611;28;20182;-69
2021/09/17 14:08:13;;;;;;;4.30;3.58;;;;;;;;;;5022227;28;20451;-70
2021/09/17 14:10:40;;;;;;;4.40;3.90;;;;;;;;;;5025821;28;20202;-69
2021/09/17 14:13:05;;;;;;;3.45;3.15;;;;;;;;;;5036650;28;20402;-69